Terminal Aerodrome Forecast
Issued by NWS Raleigh/Durham, NC

Home | Current Version | Previous Version | Text Only | Print | Product List | Glossary On
Versions: 1 2 3 4 5 6 7 8 9 10 11 12 13 14
000
FTUS42 KRAH 232336
TAFRDU
TAF
KRDU 232336Z 2400/2424 10013G21KT 6SM -RA FEW035 OVC050
     FM240400 08014KT 2SM SHRA BR BKN003 OVC007
     FM241100 07014KT 5SM SHRA BR OVC008
     FM241400 06010G20KT P6SM VCSH OVC006=

USA.gov is the U.S. government's official web portal to all federal, state and local government web resources and services.